createdAt,value
2019-05-16T00:00:12.691Z,2.87
2019-05-16T00:02:40.929Z,2.67
2019-05-16T00:05:09.259Z,3.33
2019-05-16T00:07:39.073Z,3.92
2019-05-16T00:10:08.544Z,2.45
2019-05-16T00:12:39.584Z,3.77
2019-05-16T00:15:09.067Z,1.70
2019-05-16T00:17:38.622Z,5.97
2019-05-16T00:20:09.367Z,3.67
2019-05-16T00:22:39.337Z,2.52
2019-05-16T00:25:08.651Z,2.10
2019-05-16T00:27:38.621Z,2.67
2019-05-16T00:30:08.842Z,2.85
2019-05-16T00:32:39.027Z,2.40
2019-05-16T00:35:09.241Z,2.47
2019-05-16T00:37:39.142Z,2.77
2019-05-16T00:40:08.228Z,2.55
2019-05-16T00:42:38.773Z,3.47
2019-05-16T00:45:08.884Z,2.45
2019-05-16T00:47:58.298Z,4.50
2019-05-16T00:50:28.545Z,2.50
2019-05-16T00:52:55.988Z,1.87
2019-05-16T00:55:24.210Z,3.85
2019-05-16T00:57:52.436Z,6.25
2019-05-16T01:00:38.697Z,2.75
2019-05-16T01:03:08.132Z,1.82
2019-05-16T01:05:38.753Z,2.83
2019-05-16T01:08:07.867Z,3.17
2019-05-16T01:10:36.398Z,3.05
2019-05-16T01:13:04.635Z,3.95
2019-05-16T01:15:32.896Z,3.87
2019-05-16T01:18:01.342Z,2.00
2019-05-16T01:20:29.559Z,2.77
2019-05-16T01:22:58.144Z,1.67
2019-05-16T01:25:28.215Z,2.02
2019-05-16T01:27:58.305Z,4.55
2019-05-16T01:30:28.643Z,2.98
2019-05-16T01:32:58.265Z,2.70
2019-05-16T01:35:27.878Z,2.40
2019-05-16T01:37:58.092Z,3.92
2019-05-16T01:40:28.094Z,7.00
2019-05-16T01:42:57.849Z,4.78
2019-05-16T01:45:27.787Z,2.05
2019-05-16T01:48:15.541Z,4.50
2019-05-16T01:50:43.760Z,3.10
2019-05-16T01:53:11.992Z,2.08
2019-05-16T01:55:40.226Z,2.58
2019-05-16T01:58:08.453Z,2.47
2019-05-16T02:00:47.934Z,2.67
2019-05-16T02:03:08.271Z,3.35
2019-05-16T02:05:38.770Z,1.70
2019-05-16T02:08:08.883Z,4.80
2019-05-16T02:10:37.864Z,2.02
2019-05-16T02:13:08.347Z,2.83
2019-05-16T02:15:38.280Z,3.12
2019-05-16T02:18:08.308Z,4.17
2019-05-16T02:20:36.163Z,3.15
2019-05-16T02:23:04.397Z,3.02
2019-05-16T02:25:32.618Z,2.70
2019-05-16T02:28:00.833Z,2.02
2019-05-16T02:30:31.474Z,2.10
2019-05-16T02:33:01.137Z,1.72
2019-05-16T02:35:31.104Z,1.72
2019-05-16T02:38:01.046Z,2.47
2019-05-16T02:40:31.304Z,1.12
2019-05-16T02:43:01.775Z,3.65
2019-05-16T02:45:32.145Z,2.47
2019-05-16T02:48:01.294Z,1.55
2019-05-16T02:50:31.645Z,1.82
2019-05-16T02:53:01.357Z,2.12
2019-05-16T02:55:30.830Z,1.70
2019-05-16T02:58:00.962Z,2.95
2019-05-16T03:00:41.936Z,4.15
2019-05-16T03:03:07.318Z,2.25
2019-05-16T03:05:35.546Z,2.67
2019-05-16T03:08:04.797Z,1.70
2019-05-16T03:10:52.479Z,2.05
2019-05-16T03:13:22.143Z,1.67
2019-05-16T03:15:51.255Z,3.00
2019-05-16T03:18:22.434Z,2.37
2019-05-16T03:20:51.136Z,2.83
2019-05-16T03:23:21.824Z,2.00
2019-05-16T03:25:50.742Z,1.55
2019-05-16T03:28:22.198Z,2.55
2019-05-16T03:30:54.403Z,3.70
2019-05-16T03:33:26.281Z,1.45
2019-05-16T03:35:54.328Z,1.82
2019-05-16T03:38:21.241Z,1.85
2019-05-16T03:40:50.976Z,3.05
2019-05-16T03:43:41.275Z,2.45
2019-05-16T03:46:11.943Z,2.70
2019-05-16T03:48:40.895Z,2.65
2019-05-16T03:51:11.307Z,3.55
2019-05-16T03:53:40.387Z,1.87
2019-05-16T03:56:11.147Z,2.60
2019-05-16T03:58:41.356Z,2.25
2019-05-16T04:01:11.145Z,2.40
2019-05-16T04:03:41.175Z,1.87
2019-05-16T04:06:11.546Z,1.72
2019-05-16T04:08:41.015Z,1.82
2019-05-16T04:11:11.373Z,2.22
2019-05-16T04:13:41.094Z,2.25
2019-05-16T04:16:11.502Z,1.75
2019-05-16T04:18:41.649Z,6.92
2019-05-16T04:21:11.637Z,2.15
2019-05-16T04:23:41.675Z,2.15
2019-05-16T04:26:11.121Z,2.27
2019-05-16T04:28:41.004Z,1.17
2019-05-16T04:31:10.680Z,3.12
2019-05-16T04:33:41.208Z,2.72
2019-05-16T04:36:10.930Z,2.30
2019-05-16T04:38:45.111Z,1.75
2019-05-16T04:41:11.301Z,1.47
2019-05-16T04:43:41.338Z,1.62
2019-05-16T04:46:11.387Z,2.42
2019-05-16T04:48:41.425Z,2.12
2019-05-16T04:51:10.602Z,3.27
2019-05-16T04:53:38.166Z,2.95
2019-05-16T04:56:06.476Z,2.10
2019-05-16T04:58:34.841Z,2.52
2019-05-16T05:01:03.121Z,3.42
2019-05-16T05:03:31.799Z,3.40
2019-05-16T05:06:01.272Z,1.50
2019-05-16T05:08:32.329Z,3.12
2019-05-16T05:11:01.353Z,6.62
2019-05-16T05:13:30.637Z,2.83
2019-05-16T05:16:01.319Z,3.37
2019-05-16T05:18:30.279Z,1.95
2019-05-16T05:21:00.975Z,2.60
2019-05-16T05:23:30.119Z,2.47
2019-05-16T05:26:00.317Z,2.45
2019-05-16T05:28:29.943Z,2.77
2019-05-16T05:30:59.803Z,3.25
2019-05-16T05:33:30.348Z,3.12
2019-05-16T05:36:00.760Z,2.65
2019-05-16T05:38:30.829Z,3.08
2019-05-16T05:41:00.149Z,2.02
2019-05-16T05:43:30.343Z,4.15
2019-05-16T05:46:00.446Z,1.65
2019-05-16T05:48:30.525Z,1.55
2019-05-16T05:51:00.075Z,3.47
2019-05-16T05:53:30.069Z,2.15
2019-05-16T05:56:00.450Z,3.98
2019-05-16T05:58:30.781Z,2.90
2019-05-16T06:01:00.412Z,2.37
2019-05-16T06:03:29.099Z,2.12
2019-05-16T06:05:57.953Z,2.17
2019-05-16T06:08:26.278Z,5.33
2019-05-16T06:10:54.517Z,2.22
2019-05-16T06:13:22.748Z,2.37
2019-05-16T06:15:51.455Z,1.70
2019-05-16T06:18:20.177Z,1.85
2019-05-16T06:20:51.146Z,2.27
2019-05-16T06:23:20.603Z,3.60
2019-05-16T06:25:50.469Z,4.40
2019-05-16T06:28:20.609Z,5.83
2019-05-16T06:30:51.503Z,6.70
2019-05-16T06:33:19.986Z,2.33
2019-05-16T06:35:50.896Z,5.30
2019-05-16T06:38:20.913Z,1.27
2019-05-16T06:40:49.981Z,2.17
2019-05-16T06:43:20.448Z,1.98
2019-05-16T06:45:51.002Z,2.30
2019-05-16T06:48:20.789Z,5.45
2019-05-16T06:50:51.499Z,3.12
2019-05-16T06:53:20.713Z,2.05
2019-05-16T06:55:49.765Z,2.90
2019-05-16T06:58:21.868Z,2.62
2019-05-16T07:00:51.708Z,1.90
2019-05-16T07:03:20.538Z,2.65
2019-05-16T07:06:09.655Z,2.25
2019-05-16T07:08:40.129Z,2.30
2019-05-16T07:11:07.610Z,1.10
2019-05-16T07:13:35.895Z,2.42
2019-05-16T07:16:04.184Z,2.65
2019-05-16T07:18:32.487Z,3.90
2019-05-16T07:21:00.775Z,2.37
2019-05-16T07:23:29.830Z,3.20
2019-05-16T07:26:00.572Z,1.72
2019-05-16T07:28:30.046Z,3.15
2019-05-16T07:31:02.751Z,1.37
2019-05-16T07:33:30.951Z,2.25
2019-05-16T07:36:00.376Z,1.87
2019-05-16T07:38:30.668Z,1.45
2019-05-16T07:40:59.898Z,2.47
2019-05-16T07:43:30.580Z,2.55
2019-05-16T07:46:00.498Z,1.32
2019-05-16T07:48:31.236Z,0.93
2019-05-16T07:51:00.519Z,2.92
2019-05-16T07:53:32.810Z,1.30
2019-05-16T07:56:00.117Z,3.30
2019-05-16T07:58:30.987Z,2.55
2019-05-16T08:01:04.487Z,2.17
2019-05-16T08:03:30.387Z,1.32
2019-05-16T08:06:01.788Z,2.60
2019-05-16T08:08:31.313Z,1.47
2019-05-16T08:11:01.528Z,3.35
2019-05-16T08:13:30.869Z,2.10
2019-05-16T08:16:01.183Z,4.40
2019-05-16T08:18:30.193Z,2.72
2019-05-16T08:21:01.054Z,1.35
2019-05-16T08:23:30.547Z,1.75
2019-05-16T08:26:01.242Z,1.42
2019-05-16T08:28:30.862Z,1.95
2019-05-16T08:31:00.874Z,3.12
2019-05-16T08:33:32.049Z,1.55
2019-05-16T08:36:04.787Z,2.62
2019-05-16T08:38:30.876Z,2.10
2019-05-16T08:41:07.996Z,3.45
2019-05-16T08:43:31.704Z,2.85
2019-05-16T08:46:01.022Z,4.25
2019-05-16T08:48:31.730Z,2.60
2019-05-16T08:51:02.862Z,1.60
2019-05-16T08:53:32.009Z,3.27
2019-05-16T08:56:02.601Z,1.82
2019-05-16T08:58:33.012Z,1.50
2019-05-16T09:01:02.262Z,3.12
2019-05-16T09:03:32.448Z,1.80
2019-05-16T09:06:02.827Z,2.25
2019-05-16T09:08:31.245Z,3.45
2019-05-16T09:11:04.832Z,2.22
2019-05-16T09:13:29.569Z,2.10
2019-05-16T09:15:57.831Z,1.82
2019-05-16T09:18:28.967Z,3.95
2019-05-16T09:20:57.824Z,9.65
2019-05-16T09:23:26.842Z,5.53
2019-05-16T09:25:57.940Z,2.15
2019-05-16T09:28:28.304Z,4.17
2019-05-16T09:30:57.773Z,3.58
2019-05-16T09:33:27.153Z,3.58
2019-05-16T09:36:02.823Z,1.77
2019-05-16T09:38:28.441Z,4.22
2019-05-16T09:40:56.964Z,5.03
2019-05-16T09:43:28.054Z,3.60
2019-05-16T09:46:02.871Z,3.77
2019-05-16T09:48:28.087Z,4.25
2019-05-16T09:50:57.647Z,2.30
2019-05-16T09:53:27.605Z,4.35
2019-05-16T09:55:57.631Z,2.30
2019-05-16T09:58:27.938Z,2.77
2019-05-16T10:00:57.462Z,4.62
2019-05-16T10:03:27.056Z,4.08
2019-05-16T10:05:57.225Z,3.80
2019-05-16T10:08:26.740Z,3.90
2019-05-16T10:10:57.070Z,3.25
2019-05-16T10:13:27.617Z,3.50
2019-05-16T10:15:55.519Z,4.50
2019-05-16T10:18:23.791Z,3.15
2019-05-16T10:20:52.080Z,6.97
2019-05-16T10:23:20.343Z,4.83
2019-05-16T10:25:49.609Z,4.55
2019-05-16T10:28:20.160Z,3.45
2019-05-16T10:30:50.137Z,3.85
2019-05-16T10:33:19.197Z,8.45
2019-05-16T10:35:48.225Z,4.60
2019-05-16T10:38:16.540Z,3.72
2019-05-16T10:40:47.157Z,3.90
2019-05-16T10:43:17.096Z,3.75
2019-05-16T10:45:46.412Z,3.05
2019-05-16T10:48:17.294Z,5.35
2019-05-16T10:50:47.066Z,5.72
2019-05-16T10:53:39.877Z,4.05
2019-05-16T10:55:47.569Z,5.17
2019-05-16T10:58:32.947Z,5.70
2019-05-16T11:01:07.857Z,3.00
2019-05-16T11:03:17.124Z,5.62
2019-05-16T11:06:01.671Z,4.20
2019-05-16T11:08:15.611Z,4.15
2019-05-16T11:10:43.881Z,4.08
2019-05-16T11:13:12.246Z,5.72
2019-05-16T11:15:40.481Z,4.97
2019-05-16T11:18:08.697Z,4.83
2019-05-16T11:20:37.487Z,5.83
2019-05-16T11:23:08.012Z,5.53
2019-05-16T11:25:36.715Z,7.58
2019-05-16T11:28:07.377Z,8.18
2019-05-16T11:30:37.617Z,3.50
2019-05-16T11:33:07.352Z,4.90
2019-05-16T11:35:37.839Z,8.85
2019-05-16T11:38:07.140Z,6.25
2019-05-16T11:40:35.000Z,5.92
2019-05-16T11:43:10.030Z,4.80
2019-05-16T11:45:33.240Z,7.92
2019-05-16T11:48:01.470Z,5.55
2019-05-16T11:50:49.226Z,5.33
2019-05-16T11:53:17.744Z,6.78
2019-05-16T11:55:55.165Z,6.20
2019-05-16T11:58:18.016Z,5.58
2019-05-16T12:00:48.248Z,4.03
2019-05-16T12:03:17.167Z,5.62
2019-05-16T12:05:48.201Z,5.40
2019-05-16T12:08:17.540Z,4.47
2019-05-16T12:10:47.193Z,5.85
2019-05-16T12:13:25.272Z,6.25
2019-05-16T12:15:45.409Z,5.42
2019-05-16T12:18:13.799Z,7.08
2019-05-16T12:20:43.261Z,5.50
2019-05-16T12:23:11.527Z,9.18
2019-05-16T12:25:39.883Z,6.10
2019-05-16T12:28:08.356Z,6.58
2019-05-16T12:30:37.666Z,5.67
2019-05-16T12:33:07.346Z,4.40
2019-05-16T12:35:36.932Z,3.92
2019-05-16T12:38:08.135Z,5.90
2019-05-16T12:40:37.413Z,5.65
2019-05-16T12:43:07.850Z,4.78
2019-05-16T12:45:35.444Z,4.47
2019-05-16T12:48:03.680Z,8.28
2019-05-16T12:50:32.196Z,5.28
2019-05-16T12:53:00.447Z,7.20
2019-05-16T12:55:28.676Z,5.42
2019-05-16T12:58:12.273Z,9.35
2019-05-16T13:00:27.647Z,6.90
2019-05-16T13:02:57.571Z,7.42
2019-05-16T13:05:26.910Z,6.22
2019-05-16T13:07:55.464Z,6.12
2019-05-16T13:10:23.710Z,6.53
2019-05-16T13:12:51.921Z,5.72
2019-05-16T13:15:20.182Z,6.30
2019-05-16T13:17:48.411Z,6.15
2019-05-16T13:20:17.524Z,4.62
2019-05-16T13:22:47.345Z,5.83
2019-05-16T13:25:18.095Z,6.50
2019-05-16T13:27:47.626Z,5.72
2019-05-16T13:30:17.577Z,6.72
2019-05-16T13:32:46.526Z,7.35
2019-05-16T13:35:16.926Z,6.30
2019-05-16T13:37:47.472Z,4.85
2019-05-16T13:40:17.044Z,6.10
2019-05-16T13:42:47.779Z,4.62
2019-05-16T13:45:17.677Z,5.00
2019-05-16T13:47:44.845Z,4.92
2019-05-16T13:50:13.214Z,5.35
2019-05-16T13:52:41.819Z,8.98
2019-05-16T13:55:10.069Z,6.67
2019-05-16T13:57:38.379Z,5.47
2019-05-16T14:00:07.695Z,6.25
2019-05-16T14:02:37.628Z,5.00
2019-05-16T14:07:57.212Z,6.60
2019-05-16T14:10:29.309Z,7.87
2019-05-16T14:12:57.576Z,3.85
2019-05-16T14:15:27.081Z,5.50
2019-05-16T14:17:56.847Z,7.55
2019-05-16T14:20:25.259Z,5.85
2019-05-16T14:22:53.669Z,8.78
2019-05-16T14:25:22.564Z,5.72
2019-05-16T14:27:51.270Z,9.25
2019-05-16T14:30:19.497Z,5.62
2019-05-16T14:32:50.716Z,9.25
2019-05-16T14:35:17.797Z,8.90
2019-05-16T14:37:46.877Z,9.05
2019-05-16T14:40:17.575Z,6.95
2019-05-16T14:42:47.925Z,8.98
2019-05-16T14:45:17.056Z,10.58
2019-05-16T14:47:47.558Z,9.10
2019-05-16T14:50:16.972Z,10.50
2019-05-16T14:52:47.433Z,7.58
2019-05-16T14:55:18.052Z,9.25
2019-05-16T14:57:47.306Z,7.62
2019-05-16T15:00:18.387Z,8.23
2019-05-16T15:02:48.017Z,10.90
2019-05-16T15:05:16.033Z,7.35
2019-05-16T15:07:44.313Z,8.65
2019-05-16T15:10:12.640Z,8.73
2019-05-16T15:12:40.887Z,13.05
2019-05-16T15:15:20.123Z,7.97
2019-05-16T15:17:39.247Z,9.30
2019-05-16T15:20:08.140Z,10.32
2019-05-16T15:22:38.274Z,10.28
2019-05-16T15:25:08.073Z,10.40
2019-05-16T15:27:37.298Z,9.93
2019-05-16T15:30:08.582Z,13.22
2019-05-16T15:32:38.450Z,11.00
2019-05-16T15:35:07.443Z,10.23
2019-05-16T15:37:37.196Z,10.32
2019-05-16T15:40:07.655Z,12.68
2019-05-16T15:42:37.276Z,13.98
2019-05-16T15:45:07.072Z,13.28
2019-05-16T15:47:37.594Z,11.83
2019-05-16T15:50:10.317Z,9.80
2019-05-16T15:52:38.665Z,15.40
2019-05-16T15:55:10.121Z,11.57
2019-05-16T15:57:37.935Z,10.95
2019-05-16T16:00:07.040Z,10.18
2019-05-16T16:02:36.732Z,12.75
2019-05-16T16:05:09.480Z,9.00
2019-05-16T16:07:38.155Z,14.30
2019-05-16T16:10:07.455Z,13.85
2019-05-16T16:12:37.499Z,12.75
2019-05-16T16:15:07.565Z,13.25
2019-05-16T16:17:38.179Z,15.18
2019-05-16T16:20:10.473Z,14.40
2019-05-16T16:22:37.806Z,15.88
2019-05-16T16:25:06.988Z,15.08
2019-05-16T16:27:35.446Z,15.45
2019-05-16T16:30:06.823Z,16.05
2019-05-16T16:32:37.822Z,15.28
2019-05-16T16:35:07.569Z,15.28
2019-05-16T16:37:37.876Z,17.40
2019-05-16T16:40:11.439Z,17.00
2019-05-16T16:42:37.411Z,15.70
2019-05-16T16:45:08.889Z,13.65
2019-05-16T16:47:37.978Z,13.20
2019-05-16T16:50:07.998Z,15.05
2019-05-16T16:52:37.821Z,21.12
2019-05-16T16:55:08.274Z,19.65
2019-05-16T16:57:38.442Z,12.37
2019-05-16T17:00:07.645Z,13.05
2019-05-16T17:02:37.383Z,14.60
2019-05-16T17:05:11.437Z,11.95
2019-05-16T17:07:37.309Z,15.20
2019-05-16T17:10:06.988Z,13.85
2019-05-16T17:12:42.004Z,13.28
2019-05-16T17:15:08.538Z,14.85
2019-05-16T17:17:37.401Z,17.25
2019-05-16T17:20:07.803Z,16.95
2019-05-16T17:22:37.769Z,14.63
2019-05-16T17:25:07.485Z,13.88
2019-05-16T17:27:37.640Z,16.23
2019-05-16T17:30:13.593Z,14.83
2019-05-16T17:32:41.831Z,20.25
2019-05-16T17:35:10.075Z,16.42
2019-05-16T17:37:38.428Z,15.83
2019-05-16T17:40:07.247Z,18.92
2019-05-16T17:42:37.354Z,18.05
2019-05-16T17:45:07.329Z,15.93
2019-05-16T17:47:37.014Z,14.83
2019-05-16T17:50:07.928Z,14.80
2019-05-16T17:52:36.945Z,19.25
2019-05-16T17:55:07.301Z,16.73
2019-05-16T17:57:37.104Z,19.60
2019-05-16T18:00:07.245Z,15.08
2019-05-16T18:02:37.280Z,17.52
2019-05-16T18:05:07.509Z,14.20
2019-05-16T18:07:36.732Z,15.15
2019-05-16T18:10:07.843Z,17.60
2019-05-16T18:12:37.253Z,19.45
2019-05-16T18:15:08.422Z,14.10
2019-05-16T18:17:37.175Z,17.60
2019-05-16T18:20:07.382Z,16.42
2019-05-16T18:22:36.585Z,14.63
2019-05-16T18:25:26.882Z,18.25
2019-05-16T18:27:55.341Z,16.32
2019-05-16T18:30:26.993Z,18.80
2019-05-16T18:32:54.855Z,17.87
2019-05-16T18:35:23.079Z,14.23
2019-05-16T18:37:51.312Z,14.38
2019-05-16T18:40:19.559Z,16.90
2019-05-16T18:42:47.849Z,15.10
2019-05-16T18:45:16.636Z,20.97
2019-05-16T18:47:46.842Z,12.50
2019-05-16T18:50:17.821Z,13.85
2019-05-16T18:52:47.065Z,23.32
2019-05-16T18:55:16.825Z,14.35
2019-05-16T18:57:47.283Z,18.85
2019-05-16T19:00:17.569Z,19.00
2019-05-16T19:02:47.670Z,16.57
2019-05-16T19:05:17.224Z,15.38
2019-05-16T19:07:47.367Z,14.35
2019-05-16T19:10:17.454Z,16.85
2019-05-16T19:12:47.547Z,16.40
2019-05-16T19:15:17.521Z,19.02
2019-05-16T19:17:45.842Z,15.43
2019-05-16T19:20:14.061Z,15.72
2019-05-16T19:22:42.386Z,16.30
2019-05-16T19:25:10.606Z,17.48
2019-05-16T19:27:38.836Z,22.32
2019-05-16T19:30:07.748Z,15.50
2019-05-16T19:32:39.084Z,14.85
2019-05-16T19:35:07.153Z,18.52
2019-05-16T19:37:40.163Z,31.02
2019-05-16T19:40:06.403Z,19.70
2019-05-16T19:42:36.820Z,13.18
2019-05-16T19:45:07.167Z,16.00
2019-05-16T19:47:40.818Z,12.50
2019-05-16T19:50:06.603Z,11.85
2019-05-16T19:52:36.732Z,10.95
2019-05-16T19:55:07.276Z,8.00
2019-05-16T19:57:37.449Z,13.15
2019-05-16T20:00:07.934Z,13.20
2019-05-16T20:02:36.828Z,7.95
2019-05-16T20:05:09.089Z,10.95
2019-05-16T20:07:37.833Z,16.10
2019-05-16T20:10:09.568Z,7.72
2019-05-16T20:12:37.187Z,12.47
2019-05-16T20:15:11.244Z,10.68
2019-05-16T20:17:37.846Z,9.28
2019-05-16T20:20:06.409Z,12.73
2019-05-16T20:22:36.786Z,18.00
2019-05-16T20:25:05.832Z,14.73
2019-05-16T20:27:36.519Z,20.25
2019-05-16T20:30:06.880Z,15.35
2019-05-16T20:32:37.261Z,13.85
2019-05-16T20:35:08.510Z,14.78
2019-05-16T20:37:36.765Z,10.72
2019-05-16T20:40:08.628Z,11.75
2019-05-16T20:42:36.769Z,12.85
2019-05-16T20:45:08.017Z,14.90
2019-05-16T20:47:36.519Z,15.25
2019-05-16T20:50:07.704Z,13.35
2019-05-16T20:52:37.777Z,15.35
2019-05-16T20:55:07.197Z,14.63
2019-05-16T20:57:37.644Z,14.38
2019-05-16T21:00:09.804Z,16.40
2019-05-16T21:02:38.149Z,12.07
2019-05-16T21:05:06.851Z,15.60
2019-05-16T21:07:37.366Z,15.55
2019-05-16T21:10:08.059Z,14.18
2019-05-16T21:12:39.867Z,19.90
2019-05-16T21:15:07.308Z,10.70
2019-05-16T21:17:35.548Z,15.35
2019-05-16T21:20:04.135Z,15.53
2019-05-16T21:22:32.382Z,14.85
2019-05-16T21:25:00.603Z,14.60
2019-05-16T21:27:28.929Z,16.10
2019-05-16T21:29:57.156Z,13.03
2019-05-16T21:32:27.065Z,12.75
2019-05-16T21:34:56.612Z,14.03
2019-05-16T21:37:26.798Z,17.07
2019-05-16T21:39:56.997Z,15.63
2019-05-16T21:42:26.919Z,11.90
2019-05-16T21:44:56.890Z,16.93
2019-05-16T21:47:27.329Z,15.83
2019-05-16T21:49:56.829Z,16.45
2019-05-16T21:52:28.561Z,15.25
2019-05-16T21:54:56.475Z,14.55
2019-05-16T21:57:26.804Z,15.93
2019-05-16T21:59:57.171Z,16.42
2019-05-16T22:02:26.558Z,14.63
2019-05-16T22:04:56.884Z,15.13
2019-05-16T22:07:33.246Z,18.37
2019-05-16T22:09:56.973Z,17.20
2019-05-16T22:12:26.425Z,12.82
2019-05-16T22:14:57.114Z,14.95
2019-05-16T22:17:27.374Z,22.42
2019-05-16T22:19:56.393Z,17.02
2019-05-16T22:22:27.608Z,17.82
2019-05-16T22:24:57.069Z,12.00
2019-05-16T22:27:26.918Z,18.42
2019-05-16T22:29:56.789Z,13.65
2019-05-16T22:32:27.030Z,13.85
2019-05-16T22:34:59.578Z,14.93
2019-05-16T22:37:26.550Z,16.45
2019-05-16T22:39:59.408Z,15.08
2019-05-16T22:42:26.793Z,14.47
2019-05-16T22:44:54.855Z,19.37
2019-05-16T22:47:23.210Z,14.20
2019-05-16T22:49:51.544Z,13.25
2019-05-16T22:52:19.789Z,17.80
2019-05-16T22:54:48.012Z,14.93
2019-05-16T22:57:17.605Z,11.60
2019-05-16T22:59:46.232Z,13.45
2019-05-16T23:02:16.672Z,17.98
2019-05-16T23:04:44.479Z,16.80
2019-05-16T23:07:12.733Z,16.17
2019-05-16T23:09:40.953Z,14.65
2019-05-16T23:12:09.163Z,19.10
2019-05-16T23:14:37.900Z,19.23
2019-05-16T23:17:06.825Z,12.75
2019-05-16T23:19:36.737Z,12.13
2019-05-16T23:22:07.370Z,20.50
2019-05-16T23:24:36.958Z,17.07
2019-05-16T23:27:06.945Z,14.73
2019-05-16T23:29:36.758Z,14.40
2019-05-16T23:32:07.352Z,18.62
2019-05-16T23:34:37.295Z,16.62
2019-05-16T23:37:06.453Z,14.75
2019-05-16T23:39:34.812Z,18.30
2019-05-16T23:42:03.115Z,19.73
2019-05-16T23:44:31.588Z,15.13
2019-05-16T23:46:59.815Z,16.27
2019-05-16T23:49:28.516Z,16.95
2019-05-16T23:51:56.900Z,14.68
2019-05-16T23:54:27.636Z,17.48
2019-05-16T23:56:57.210Z,21.10
2019-05-16T23:59:27.570Z,15.72
